Time;durP1;ratioP1;P1;durP2;ratioP2;P2;SDS_P1;SDS_P2;PMS_P1;PMS_P2;Temp;Humidity;BMP_temperature;BMP_pressure;BME280_temperature;BME280_humidity;BME280_pressure;Samples;Min_cycle;Max_cycle;Signal;HPM_P1;HPM_P2
2024/01/06 00:02:18;;;;;;;18.75;14.80;;;3.60;99.90;;;;;;5022616;28;20188;-44
2024/01/06 00:04:44;;;;;;;17.90;13.00;;;3.70;99.90;;;;;;5022641;28;20260;-41
2024/01/06 00:07:10;;;;;;;18.70;14.02;;;3.60;99.90;;;;;;5022596;28;20306;-43
2024/01/06 00:09:36;;;;;;;20.48;14.25;;;3.60;99.90;;;;;;5022750;28;20754;-43
2024/01/06 00:12:02;;;;;;;18.52;14.45;;;3.60;99.90;;;;;;5023109;28;20204;-50
2024/01/06 00:14:28;;;;;;;18.88;13.88;;;3.70;99.90;;;;;;5022794;28;20703;-43
2024/01/06 00:16:54;;;;;;;16.08;11.27;;;3.70;99.90;;;;;;5022541;28;20200;-46
2024/01/06 00:19:19;;;;;;;15.43;12.05;;;3.60;99.90;;;;;;5022504;28;20184;-43
2024/01/06 00:21:45;;;;;;;16.13;12.25;;;3.60;99.90;;;;;;5018945;28;20675;-43
2024/01/06 00:24:11;;;;;;;16.95;12.07;;;3.50;99.90;;;;;;5019702;28;20901;-43
2024/01/06 00:26:37;;;;;;;17.98;12.40;;;3.50;99.90;;;;;;5022192;28;20199;-44
2024/01/06 00:29:03;;;;;;;18.15;12.38;;;3.50;99.90;;;;;;5022560;28;20191;-44
2024/01/06 00:31:29;;;;;;;16.85;12.63;;;3.50;99.90;;;;;;5022449;28;20200;-43
2024/01/06 00:33:54;;;;;;;16.08;12.27;;;3.50;99.90;;;;;;5022383;28;20196;-45
2024/01/06 00:36:20;;;;;;;17.30;12.32;;;3.50;99.90;;;;;;5017836;28;20219;-39
2024/01/06 00:38:46;;;;;;;15.15;11.57;;;3.50;99.90;;;;;;5017082;28;20199;-42
2024/01/06 00:41:13;;;;;;;16.35;12.55;;;3.50;99.90;;;;;;5022096;28;20193;-46
2024/01/06 00:43:39;;;;;;;20.23;14.05;;;3.50;99.90;;;;;;5002261;28;20192;-43
2024/01/06 00:46:05;;;;;;;18.58;13.20;;;3.50;99.90;;;;;;5021940;28;20184;-44
2024/01/06 00:48:31;;;;;;;16.58;13.45;;;3.50;99.90;;;;;;5022304;28;20199;-40
2024/01/06 00:50:56;;;;;;;18.20;13.30;;;3.50;99.90;;;;;;5021842;28;20204;-46
2024/01/06 00:53:22;;;;;;;18.40;13.38;;;3.50;99.90;;;;;;5021835;28;20196;-49
2024/01/06 00:55:48;;;;;;;17.70;12.85;;;3.40;99.90;;;;;;5021835;28;20227;-44
2024/01/06 00:58:14;;;;;;;19.73;13.52;;;3.30;99.90;;;;;;5022164;28;20195;-44
2024/01/06 01:00:40;;;;;;;18.02;13.23;;;3.30;99.90;;;;;;5021935;28;20680;-45
2024/01/06 01:03:06;;;;;;;22.02;12.95;;;3.30;99.90;;;;;;5021388;28;20196;-44
2024/01/06 01:05:32;;;;;;;20.08;13.52;;;3.40;99.90;;;;;;5022251;28;20183;-39
2024/01/06 01:07:57;;;;;;;17.38;12.45;;;3.30;99.90;;;;;;5021695;28;20218;-42
2024/01/06 01:10:23;;;;;;;18.70;12.93;;;3.40;99.90;;;;;;5021863;28;21112;-46
2024/01/06 01:12:49;;;;;;;17.23;12.23;;;3.40;99.90;;;;;;5015891;28;20329;-47
2024/01/06 01:15:15;;;;;;;16.50;12.32;;;3.40;99.90;;;;;;5021950;28;20298;-44
2024/01/06 01:17:41;;;;;;;17.60;12.73;;;3.30;99.90;;;;;;5021699;28;20751;-43
2024/01/06 01:20:07;;;;;;;16.10;12.20;;;3.40;99.90;;;;;;5021610;28;20198;-46
2024/01/06 01:22:33;;;;;;;18.48;11.70;;;3.40;99.90;;;;;;5021694;28;20242;-47
2024/01/06 01:25:05;;;;;;;16.77;12.13;;;3.30;99.90;;;;;;5021548;28;20713;-49
2024/01/06 01:27:30;;;;;;;15.30;11.80;;;3.40;99.90;;;;;;5021730;28;20237;-44
2024/01/06 01:29:57;;;;;;;15.90;11.88;;;3.30;99.90;;;;;;5021200;28;20203;-43
2024/01/06 01:32:23;;;;;;;18.33;11.48;;;3.30;99.90;;;;;;5020701;28;20196;-46
2024/01/06 01:34:48;;;;;;;15.20;11.32;;;3.30;99.90;;;;;;5021399;28;20268;-46
2024/01/06 01:37:15;;;;;;;16.58;11.65;;;3.20;99.90;;;;;;5021507;28;20275;-43
2024/01/06 01:39:41;;;;;;;16.88;10.77;;;3.20;99.90;;;;;;5019166;28;20606;-41
2024/01/06 01:42:07;;;;;;;15.35;10.93;;;3.30;99.90;;;;;;5028238;28;20180;-40
2024/01/06 01:44:33;;;;;;;18.08;11.65;;;3.20;99.90;;;;;;5027805;28;20203;-49
2024/01/06 01:46:59;;;;;;;15.35;11.25;;;3.20;99.90;;;;;;5027743;28;20273;-42
2024/01/06 01:49:26;;;;;;;17.90;11.57;;;3.20;99.90;;;;;;5028164;28;20187;-45
2024/01/06 01:51:52;;;;;;;16.30;11.05;;;3.20;99.90;;;;;;5028141;28;20184;-45
2024/01/06 01:54:18;;;;;;;14.98;11.77;;;3.20;99.90;;;;;;5027986;28;20189;-39
2024/01/06 01:56:45;;;;;;;15.32;11.30;;;3.20;99.90;;;;;;5027952;28;20215;-46
2024/01/06 01:59:17;;;;;;;15.65;12.00;;;3.20;99.90;;;;;;5027960;28;21080;-46
2024/01/06 02:01:44;;;;;;;16.38;11.48;;;3.20;99.90;;;;;;5027447;28;20199;-40
2024/01/06 02:04:10;;;;;;;16.10;11.20;;;3.20;99.90;;;;;;5027781;28;20194;-44
2024/01/06 02:06:36;;;;;;;17.10;11.90;;;3.20;99.90;;;;;;5027504;28;20200;-40
2024/01/06 02:09:01;;;;;;;17.95;12.13;;;3.20;99.90;;;;;;5027916;28;20190;-43
2024/01/06 02:11:27;;;;;;;17.00;11.27;;;3.20;99.90;;;;;;5027308;28;20188;-42
2024/01/06 02:13:53;;;;;;;16.70;11.70;;;3.20;99.90;;;;;;5027544;28;20250;-40
2024/01/06 02:16:19;;;;;;;15.52;11.60;;;3.20;99.90;;;;;;5027740;28;20326;-42
2024/01/06 02:18:45;;;;;;;17.20;12.15;;;3.10;99.90;;;;;;5027435;28;20211;-43
2024/01/06 02:21:11;;;;;;;17.70;12.25;;;3.10;99.90;;;;;;5022350;28;20200;-40
2024/01/06 02:23:37;;;;;;;16.90;11.65;;;3.20;99.90;;;;;;5027743;28;20275;-43
2024/01/06 02:26:04;;;;;;;17.40;11.80;;;3.20;99.90;;;;;;5019649;28;20326;-47
2024/01/06 02:28:29;;;;;;;17.80;12.35;;;3.20;99.90;;;;;;5022304;28;20188;-47
2024/01/06 02:30:55;;;;;;;17.83;11.80;;;3.20;99.90;;;;;;5027911;28;21084;-46
2024/01/06 02:33:23;;;;;;;17.17;11.57;;;3.20;99.90;;;;;;5024752;28;20762;-45
2024/01/06 02:35:49;;;;;;;17.27;11.93;;;3.20;99.90;;;;;;5027752;28;20320;-39
2024/01/06 02:38:15;;;;;;;18.27;12.35;;;3.10;99.90;;;;;;5022993;28;20192;-42
2024/01/06 02:40:42;;;;;;;15.30;10.48;;;3.00;99.90;;;;;;5021262;28;20218;-41
2024/01/06 02:43:09;;;;;;;15.50;11.43;;;2.90;99.90;;;;;;5027452;28;20215;-42
2024/01/06 02:45:35;;;;;;;17.67;11.93;;;2.90;99.90;;;;;;5027769;28;20285;-43
2024/01/06 02:48:01;;;;;;;17.75;10.95;;;2.90;99.90;;;;;;5026329;28;20244;-40
2024/01/06 02:50:27;;;;;;;14.35;10.60;;;2.90;99.90;;;;;;5023275;28;20198;-41
2024/01/06 02:52:53;;;;;;;17.40;11.23;;;2.90;99.90;;;;;;5023081;28;20196;-43
2024/01/06 02:55:19;;;;;;;15.55;11.07;;;2.90;99.90;;;;;;5018214;28;20678;-42
2024/01/06 02:57:45;;;;;;;15.30;11.00;;;2.90;99.90;;;;;;5023895;28;20184;-45
2024/01/06 03:00:12;;;;;;;19.60;11.98;;;2.90;99.90;;;;;;5024330;28;20663;-45
2024/01/06 03:02:41;;;;;;;18.77;10.93;;;2.90;99.90;;;;;;5021347;28;20333;-44
2024/01/06 03:05:08;;;;;;;19.05;11.93;;;2.90;99.90;;;;;;5023932;28;20183;-42
2024/01/06 03:07:34;;;;;;;17.02;12.10;;;2.90;99.90;;;;;;5024138;28;20184;-40
2024/01/06 03:10:00;;;;;;;16.52;12.05;;;2.90;99.90;;;;;;5020560;28;20192;-43
2024/01/06 03:12:26;;;;;;;16.45;11.02;;;2.90;99.90;;;;;;5018226;28;20675;-42
2024/01/06 03:14:52;;;;;;;18.08;13.13;;;2.90;99.90;;;;;;5017849;28;20234;-47
2024/01/06 03:17:18;;;;;;;19.02;12.90;;;2.80;99.90;;;;;;5020123;28;20180;-39
2024/01/06 03:19:44;;;;;;;19.38;13.43;;;2.80;99.90;;;;;;5023913;28;20195;-45
2024/01/06 03:22:10;;;;;;;19.90;12.40;;;2.80;99.90;;;;;;5002901;28;20206;-43
2024/01/06 03:24:36;;;;;;;20.00;14.02;;;2.90;99.90;;;;;;5024062;28;20184;-41
2024/01/06 03:27:02;;;;;;;18.85;14.00;;;2.90;99.90;;;;;;5023276;28;20255;-40
2024/01/06 03:29:28;;;;;;;22.80;13.50;;;2.80;99.90;;;;;;5023463;28;20212;-40
2024/01/06 03:31:54;;;;;;;18.50;12.90;;;2.80;99.90;;;;;;5023358;28;20634;-46
2024/01/06 03:34:20;;;;;;;20.42;14.30;;;2.90;99.90;;;;;;5023900;28;20184;-42
2024/01/06 03:36:46;;;;;;;22.40;15.30;;;2.80;99.90;;;;;;5022772;28;20656;-42
2024/01/06 03:39:13;;;;;;;22.60;14.95;;;2.90;99.90;;;;;;5023489;28;20188;-47
2024/01/06 03:41:39;;;;;;;22.48;14.40;;;2.80;99.90;;;;;;5019226;28;20644;-41
2024/01/06 03:44:05;;;;;;;21.50;14.80;;;2.80;99.90;;;;;;5023374;28;20203;-43
2024/01/06 03:46:32;;;;;;;21.25;13.93;;;2.80;99.90;;;;;;5023117;28;20228;-42
2024/01/06 03:48:58;;;;;;;21.25;14.32;;;2.80;99.90;;;;;;5022878;28;20192;-40
2024/01/06 03:51:24;;;;;;;24.17;15.50;;;2.80;99.90;;;;;;5023288;28;20254;-46
2024/01/06 03:53:50;;;;;;;23.15;14.52;;;2.80;99.90;;;;;;5020412;28;20309;-39
2024/01/06 03:56:16;;;;;;;21.10;13.95;;;2.80;99.90;;;;;;5019607;28;20215;-43
2024/01/06 03:58:42;;;;;;;20.42;13.85;;;2.90;99.90;;;;;;5023408;28;20184;-42
2024/01/06 04:01:07;;;;;;;23.88;15.60;;;2.80;99.90;;;;;;5023178;28;20191;-43
2024/01/06 04:03:33;;;;;;;21.50;15.05;;;2.80;99.90;;;;;;5005632;28;20192;-51
2024/01/06 04:05:59;;;;;;;20.08;13.52;;;2.80;99.90;;;;;;5017707;28;20202;-43
2024/01/06 04:08:25;;;;;;;23.52;14.93;;;2.80;99.90;;;;;;5022475;28;20183;-44
2024/01/06 04:10:51;;;;;;;22.70;14.57;;;2.80;99.90;;;;;;5019369;28;20203;-43
2024/01/06 04:13:17;;;;;;;20.45;14.35;;;2.80;99.90;;;;;;5019723;28;20238;-42
2024/01/06 04:15:43;;;;;;;21.02;14.63;;;2.80;99.90;;;;;;5022728;28;20223;-45
2024/01/06 04:18:09;;;;;;;22.88;14.60;;;2.80;99.90;;;;;;5022600;28;20176;-45
2024/01/06 04:20:36;;;;;;;19.35;13.68;;;2.80;99.90;;;;;;5022632;28;20275;-48
2024/01/06 04:23:02;;;;;;;20.02;14.50;;;2.80;99.90;;;;;;5022488;28;20184;-43
2024/01/06 04:25:28;;;;;;;23.65;14.48;;;2.80;99.90;;;;;;5022631;28;20192;-41
2024/01/06 04:27:54;;;;;;;21.15;14.68;;;2.80;99.90;;;;;;5016793;28;20179;-47
2024/01/06 04:30:20;;;;;;;22.70;14.25;;;2.70;99.90;;;;;;5022546;28;20188;-45
2024/01/06 04:32:48;;;;;;;21.77;13.93;;;2.80;99.90;;;;;;5022453;28;20981;-40
2024/01/06 04:35:14;;;;;;;21.23;14.25;;;2.80;99.90;;;;;;5022233;28;20208;-43
2024/01/06 04:37:40;;;;;;;19.90;13.70;;;2.80;99.90;;;;;;5021930;28;20207;-45
2024/01/06 04:40:07;;;;;;;19.58;14.00;;;2.80;99.90;;;;;;5022211;28;20846;-45
2024/01/06 04:42:33;;;;;;;21.25;13.95;;;2.80;99.90;;;;;;5022266;28;20191;-45
2024/01/06 04:44:59;;;;;;;19.80;14.13;;;2.90;99.90;;;;;;5015492;28;20728;-42
2024/01/06 04:47:26;;;;;;;18.25;13.52;;;2.90;99.90;;;;;;5021766;28;20365;-42
2024/01/06 04:49:52;;;;;;;22.00;13.70;;;2.90;99.90;;;;;;5022192;28;20188;-42
2024/01/06 04:52:18;;;;;;;19.02;13.13;;;2.90;99.90;;;;;;5021971;28;20192;-42
2024/01/06 04:54:44;;;;;;;20.33;13.15;;;2.90;99.90;;;;;;5021840;28;20203;-41
2024/01/06 04:57:10;;;;;;;18.88;13.23;;;2.90;99.90;;;;;;5022028;28;20183;-44
2024/01/06 04:59:35;;;;;;;19.88;13.43;;;2.90;99.90;;;;;;5021793;28;20199;-43
2024/01/06 05:02:02;;;;;;;18.92;14.05;;;2.90;99.90;;;;;;5022030;28;20184;-43
2024/01/06 05:04:28;;;;;;;18.88;12.82;;;2.90;99.90;;;;;;5021966;28;20180;-41
2024/01/06 05:06:54;;;;;;;20.45;13.75;;;2.90;99.90;;;;;;5021711;28;20656;-40
2024/01/06 05:09:20;;;;;;;18.05;13.55;;;2.90;99.90;;;;;;5021360;28;20195;-46
2024/01/06 05:11:46;;;;;;;17.23;12.50;;;2.90;99.90;;;;;;5018989;28;20191;-40
2024/01/06 05:14:12;;;;;;;18.98;13.65;;;3.00;99.90;;;;;;5018193;28;20815;-45
2024/01/06 05:16:38;;;;;;;19.23;13.05;;;3.00;99.90;;;;;;5021445;28;20227;-42
2024/01/06 05:19:04;;;;;;;19.45;13.25;;;3.00;99.90;;;;;;5021579;28;20216;-44
2024/01/06 05:21:30;;;;;;;17.35;12.45;;;3.00;99.90;;;;;;5021823;28;20658;-44
2024/01/06 05:23:56;;;;;;;18.00;12.65;;;3.00;99.90;;;;;;5021410;28;20631;-43
2024/01/06 05:26:22;;;;;;;18.30;12.23;;;3.00;99.90;;;;;;5016007;28;20200;-44
2024/01/06 05:28:48;;;;;;;16.48;12.05;;;3.00;99.90;;;;;;5021244;28;20203;-42
2024/01/06 05:31:14;;;;;;;16.70;12.73;;;3.00;99.90;;;;;;5019557;28;20726;-43
2024/01/06 05:33:40;;;;;;;19.65;12.10;;;3.00;99.90;;;;;;4998315;28;20302;-41
2024/01/06 05:36:06;;;;;;;17.70;11.40;;;3.00;99.90;;;;;;5014024;28;20265;-41
2024/01/06 05:38:32;;;;;;;16.88;11.82;;;3.00;99.90;;;;;;5020895;28;20298;-45
2024/01/06 05:40:57;;;;;;;15.23;11.90;;;3.00;99.90;;;;;;5020079;28;20891;-45
2024/01/06 05:43:24;;;;;;;16.90;12.13;;;3.00;99.90;;;;;;5016014;28;20207;-45
2024/01/06 05:45:49;;;;;;;16.58;11.38;;;3.00;99.90;;;;;;5013461;28;20210;-47
2024/01/06 05:48:15;;;;;;;16.90;11.23;;;3.00;99.90;;;;;;5020780;28;20227;-43
2024/01/06 05:50:41;;;;;;;16.65;11.55;;;3.00;99.90;;;;;;5021380;28;20192;-41
2024/01/06 05:53:07;;;;;;;16.73;11.65;;;3.00;99.90;;;;;;5020501;28;20179;-40
2024/01/06 05:55:33;;;;;;;18.63;12.05;;;2.90;99.90;;;;;;5020888;28;20219;-42
2024/01/06 05:58:00;;;;;;;14.90;11.45;;;2.90;99.90;;;;;;5020882;28;20187;-42
2024/01/06 06:00:26;;;;;;;18.88;12.23;;;3.00;99.90;;;;;;5016554;28;20634;-41
2024/01/06 06:02:52;;;;;;;16.73;11.65;;;3.00;99.90;;;;;;5021416;28;20303;-44
2024/01/06 06:05:19;;;;;;;18.02;11.85;;;3.00;99.90;;;;;;5020624;28;20278;-39
2024/01/06 06:07:45;;;;;;;15.88;12.18;;;3.10;99.90;;;;;;5020970;28;20195;-43
2024/01/06 06:10:11;;;;;;;16.42;11.95;;;3.10;99.90;;;;;;5021112;28;20203;-43
2024/01/06 06:12:38;;;;;;;16.42;11.57;;;3.10;99.90;;;;;;5020825;28;20192;-42
2024/01/06 06:15:06;;;;;;;19.50;12.65;;;3.20;99.90;;;;;;5020474;28;21222;-43
2024/01/06 06:17:32;;;;;;;16.20;12.45;;;3.10;99.90;;;;;;5020639;28;20191;-41
2024/01/06 06:19:59;;;;;;;16.75;12.68;;;3.10;99.90;;;;;;5017196;28;20215;-40
2024/01/06 06:22:30;;;;;;;16.38;11.95;;;3.10;99.90;;;;;;5021312;28;20190;-48
2024/01/06 06:24:59;;;;;;;20.27;13.13;;;3.10;99.90;;;;;;5020102;28;20241;-53
2024/01/06 06:27:26;;;;;;;19.10;13.45;;;3.10;99.90;;;;;;5018264;28;20685;-46
2024/01/06 06:29:52;;;;;;;18.13;13.27;;;3.20;99.90;;;;;;5023916;28;20192;-44
2024/01/06 06:32:18;;;;;;;19.50;12.98;;;3.20;99.90;;;;;;5025005;28;20203;-45
2024/01/06 06:34:44;;;;;;;17.40;13.07;;;3.20;99.90;;;;;;5024213;28;20187;-47
2024/01/06 06:37:11;;;;;;;18.45;13.73;;;3.20;99.90;;;;;;5024614;28;20195;-42
2024/01/06 06:39:36;;;;;;;19.95;13.70;;;3.20;99.90;;;;;;5024467;28;20184;-44
2024/01/06 06:42:03;;;;;;;19.20;14.18;;;3.20;99.90;;;;;;5023635;28;20184;-42
2024/01/06 06:44:29;;;;;;;20.40;14.32;;;3.30;99.90;;;;;;5023276;28;20199;-43
2024/01/06 06:46:56;;;;;;;18.50;13.93;;;3.20;99.90;;;;;;5019279;28;20270;-42
2024/01/06 06:49:22;;;;;;;19.40;14.52;;;3.20;99.90;;;;;;5022912;28;20569;-44
2024/01/06 06:51:49;;;;;;;21.02;14.40;;;3.20;99.90;;;;;;5023022;28;20203;-43
2024/01/06 06:54:16;;;;;;;18.42;14.38;;;3.20;99.90;;;;;;5022740;28;20291;-45
2024/01/06 06:56:44;;;;;;;22.85;15.70;;;3.20;99.90;;;;;;5023025;28;20222;-42
2024/01/06 06:59:10;;;;;;;18.77;13.90;;;3.20;99.90;;;;;;5022927;28;20187;-42
2024/01/06 07:01:38;;;;;;;20.05;14.82;;;3.20;99.90;;;;;;5022368;28;20525;-44
2024/01/06 07:04:04;;;;;;;25.33;15.60;;;3.20;99.90;;;;;;5021742;28;20199;-40
2024/01/06 07:06:30;;;;;;;20.50;15.27;;;3.20;99.90;;;;;;5018664;28;20282;-43
2024/01/06 07:08:56;;;;;;;22.40;16.15;;;3.20;99.90;;;;;;5022654;28;20250;-40
2024/01/06 07:11:23;;;;;;;22.38;16.08;;;3.20;99.90;;;;;;5022728;28;20718;-43
2024/01/06 07:13:50;;;;;;;26.52;17.63;;;3.20;99.90;;;;;;5017369;28;20200;-42
2024/01/06 07:16:16;;;;;;;23.88;16.38;;;3.30;99.90;;;;;;5022330;28;20739;-45
2024/01/06 07:18:42;;;;;;;24.60;17.70;;;3.40;99.90;;;;;;5022657;28;20274;-43
2024/01/06 07:21:08;;;;;;;23.48;17.08;;;3.30;99.90;;;;;;5022464;28;20740;-43
2024/01/06 07:23:34;;;;;;;23.88;17.35;;;3.30;99.90;;;;;;5018031;28;20215;-46
2024/01/06 07:25:59;;;;;;;22.83;16.77;;;3.30;99.90;;;;;;5022331;28;20233;-44
2024/01/06 07:28:26;;;;;;;27.35;17.95;;;3.30;99.90;;;;;;5022092;28;20223;-42
2024/01/06 07:30:52;;;;;;;24.50;18.48;;;3.30;99.90;;;;;;5022332;28;20191;-39
2024/01/06 07:33:18;;;;;;;33.25;17.95;;;3.30;99.90;;;;;;5021556;28;20192;-45
2024/01/06 07:35:44;;;;;;;27.85;18.23;;;3.30;99.90;;;;;;5022048;28;20235;-44
2024/01/06 07:38:10;;;;;;;26.23;18.30;;;3.20;99.90;;;;;;5021332;28;20184;-43
2024/01/06 07:40:36;;;;;;;26.05;19.90;;;3.20;99.90;;;;;;5022352;28;20276;-44
2024/01/06 07:43:02;;;;;;;28.35;20.25;;;3.20;99.90;;;;;;5021666;28;20214;-44
2024/01/06 07:45:28;;;;;;;30.17;20.10;;;3.20;99.90;;;;;;5021990;28;20184;-45
2024/01/06 07:47:54;;;;;;;31.20;19.50;;;3.20;99.90;;;;;;5021833;28;20235;-40
2024/01/06 07:50:20;;;;;;;28.80;20.65;;;3.30;99.90;;;;;;5021792;28;20196;-40
2024/01/06 07:52:46;;;;;;;30.00;20.08;;;3.30;99.90;;;;;;5021637;28;20203;-40
2024/01/06 07:55:12;;;;;;;29.00;19.70;;;3.30;99.90;;;;;;5021332;28;20220;-40
2024/01/06 07:57:38;;;;;;;26.80;19.38;;;3.30;99.90;;;;;;5021165;28;20180;-42
2024/01/06 08:00:05;;;;;;;29.50;19.67;;;3.30;99.90;;;;;;5015960;28;20199;-45
2024/01/06 08:02:38;;;;;;;27.27;17.27;;;3.30;99.90;;;;;;5016800;28;20188;-40
2024/01/06 08:05:04;;;;;;;28.75;19.23;;;3.40;99.90;;;;;;5021769;28;20554;-42
2024/01/06 08:07:30;;;;;;;27.65;19.20;;;3.30;99.90;;;;;;5014434;28;20207;-41
2024/01/06 08:09:55;;;;;;;28.15;19.48;;;3.30;99.90;;;;;;5018800;28;20198;-44
2024/01/06 08:12:21;;;;;;;27.15;19.08;;;3.30;99.90;;;;;;5021330;28;20192;-39
2024/01/06 08:14:47;;;;;;;26.92;18.73;;;3.40;99.90;;;;;;5015183;28;20188;-45
2024/01/06 08:17:13;;;;;;;27.17;19.50;;;3.40;99.90;;;;;;5021096;28;20785;-43
2024/01/06 08:19:39;;;;;;;25.70;18.52;;;3.40;99.90;;;;;;5021116;28;20192;-42
2024/01/06 08:22:05;;;;;;;25.95;18.08;;;3.40;99.90;;;;;;5015469;28;20293;-41
2024/01/06 08:24:31;;;;;;;27.65;19.65;;;3.40;99.90;;;;;;5021403;28;20620;-43
2024/01/06 08:26:57;;;;;;;24.85;17.55;;;3.50;99.90;;;;;;5020967;28;20192;-43
2024/01/06 08:29:23;;;;;;;27.35;17.80;;;3.40;99.90;;;;;;5016155;28;20183;-40
2024/01/06 08:31:51;;;;;;;25.77;18.67;;;3.40;99.90;;;;;;5020046;28;20195;-41
2024/01/06 08:34:18;;;;;;;25.20;17.65;;;3.30;99.90;;;;;;5017524;28;20250;-44
2024/01/06 08:36:44;;;;;;;28.92;18.23;;;3.40;99.90;;;;;;5020681;28;20331;-47
2024/01/06 08:39:12;;;;;;;26.10;18.80;;;3.50;99.90;;;;;;5020772;28;20242;-39
2024/01/06 08:41:38;;;;;;;28.08;18.90;;;3.40;99.90;;;;;;5020685;28;20652;-46
2024/01/06 08:44:04;;;;;;;30.50;19.30;;;3.50;99.90;;;;;;5020555;28;20233;-50
2024/01/06 08:46:30;;;;;;;35.80;23.02;;;3.50;99.90;;;;;;5020577;28;20196;-43
2024/01/06 08:48:56;;;;;;;34.20;22.75;;;3.50;99.90;;;;;;5020093;28;20725;-47
2024/01/06 08:51:23;;;;;;;29.85;19.77;;;3.60;99.90;;;;;;5019202;28;20196;-43
2024/01/06 08:53:49;;;;;;;27.10;17.17;;;3.60;99.90;;;;;;5019894;28;20203;-40
2024/01/06 08:56:17;;;;;;;26.50;18.90;;;3.60;99.90;;;;;;5019741;28;20223;-47
2024/01/06 08:58:43;;;;;;;24.45;18.63;;;3.60;99.90;;;;;;5021065;28;20202;-44
2024/01/06 09:01:10;;;;;;;23.48;17.23;;;3.70;99.90;;;;;;5016418;28;20195;-42
2024/01/06 09:03:36;;;;;;;30.00;18.48;;;3.70;99.90;;;;;;5020091;28;20524;-41
2024/01/06 09:06:02;;;;;;;26.95;17.85;;;3.70;99.90;;;;;;5020314;28;20188;-46
2024/01/06 09:08:28;;;;;;;23.90;17.17;;;3.70;99.90;;;;;;5020299;28;20200;-46
2024/01/06 09:10:58;;;;;;;28.95;17.83;;;3.70;99.90;;;;;;5019310;28;20191;-47
2024/01/06 09:13:24;;;;;;;28.77;17.63;;;3.80;99.90;;;;;;5014237;28;20603;-43
2024/01/06 09:15:53;;;;;;;23.67;16.63;;;3.80;99.90;;;;;;5019795;28;20291;-45
2024/01/06 09:18:19;;;;;;;23.10;16.65;;;3.80;99.90;;;;;;5020435;28;20274;-46
2024/01/06 09:20:47;;;;;;;22.88;16.25;;;3.80;99.90;;;;;;5020284;28;20275;-45
2024/01/06 09:23:13;;;;;;;24.33;17.33;;;3.80;99.90;;;;;;5020155;28;20246;-46
2024/01/06 09:25:39;;;;;;;25.05;16.75;;;3.80;99.90;;;;;;5020190;28;20192;-43
2024/01/06 09:28:06;;;;;;;24.13;16.75;;;3.90;99.90;;;;;;5020212;28;20326;-42
2024/01/06 09:30:32;;;;;;;26.38;16.73;;;4.00;99.90;;;;;;5016067;28;20631;-42
2024/01/06 09:32:58;;;;;;;24.25;15.40;;;4.00;99.90;;;;;;5019615;28;20184;-42
2024/01/06 09:35:24;;;;;;;22.60;16.17;;;3.90;99.90;;;;;;5019971;28;20218;-38
2024/01/06 09:37:50;;;;;;;25.70;16.58;;;3.90;99.90;;;;;;5020002;28;20262;-51
2024/01/06 09:40:23;;;;;;;22.88;16.73;;;3.90;99.90;;;;;;5015386;28;20667;-41
2024/01/06 09:42:53;;;;;;;24.50;17.45;;;3.90;99.90;;;;;;5019777;28;20209;-41
2024/01/06 09:45:20;;;;;;;25.10;16.92;;;3.90;99.90;;;;;;5016676;28;20196;-45
2024/01/06 09:47:51;;;;;;;23.88;17.35;;;3.90;99.90;;;;;;5019097;28;20596;-45
2024/01/06 09:50:21;;;;;;;26.38;16.65;;;3.90;99.90;;;;;;5019841;28;20195;-45
2024/01/06 09:52:53;;;;;;;23.23;16.52;;;3.90;99.90;;;;;;5019581;28;20230;-42
2024/01/06 09:55:25;;;;;;;24.40;16.25;;;3.90;99.90;;;;;;5019562;28;20227;-41
2024/01/06 09:57:52;;;;;;;24.70;16.33;;;3.90;99.90;;;;;;5018763;28;20950;-44
2024/01/06 10:00:19;;;;;;;22.67;15.32;;;3.90;99.90;;;;;;5018163;28;20191;-46
2024/01/06 10:02:46;;;;;;;24.25;16.23;;;3.90;99.90;;;;;;5018742;28;21021;-49
2024/01/06 10:05:13;;;;;;;25.88;16.27;;;3.90;99.90;;;;;;5023072;28;20195;-42
2024/01/06 10:07:43;;;;;;;22.50;15.40;;;3.90;99.90;;;;;;5002487;28;20199;-43
2024/01/06 10:10:10;;;;;;;23.65;16.35;;;3.80;99.90;;;;;;5004185;28;20192;-42
2024/01/06 10:12:40;;;;;;;26.08;16.08;;;3.90;99.90;;;;;;5024392;28;20191;-44
2024/01/06 10:15:08;;;;;;;23.85;16.75;;;3.90;99.90;;;;;;5020666;28;20310;-42
2024/01/06 10:17:39;;;;;;;21.13;14.85;;;3.90;99.90;;;;;;5024097;28;20383;-45
2024/01/06 10:20:12;;;;;;;23.52;15.60;;;3.90;99.90;;;;;;5024356;28;20770;-42
2024/01/06 10:22:41;;;;;;;21.65;15.77;;;3.90;99.90;;;;;;5024410;28;20196;-46
2024/01/06 10:25:08;;;;;;;22.83;15.98;;;3.90;99.90;;;;;;5020429;28;20180;-49
2024/01/06 10:27:36;;;;;;;23.02;15.77;;;3.90;99.90;;;;;;5024316;28;20664;-52
2024/01/06 10:30:02;;;;;;;23.17;17.02;;;4.00;99.90;;;;;;5023943;28;20300;-44
2024/01/06 10:32:31;;;;;;;24.63;15.82;;;4.00;99.90;;;;;;5024587;28;20550;-46
2024/01/06 10:34:58;;;;;;;24.88;16.52;;;3.90;99.90;;;;;;5023759;28;20240;-45
2024/01/06 10:37:24;;;;;;;23.13;16.98;;;3.90;99.90;;;;;;5021815;28;20668;-42
2024/01/06 10:40:12;;;;;;;23.30;15.88;;;4.00;99.90;;;;;;5024578;28;20306;-42
2024/01/06 10:42:39;;;;;;;24.70;16.58;;;4.00;99.90;;;;;;5022708;28;20199;-46
2024/01/06 10:45:10;;;;;;;21.58;15.82;;;3.90;99.90;;;;;;5024232;28;20514;-43
2024/01/06 10:47:37;;;;;;;25.10;15.73;;;4.00;99.90;;;;;;5023458;28;20278;-43
2024/01/06 10:50:03;;;;;;;22.83;16.35;;;3.90;99.90;;;;;;5023989;28;20196;-41
2024/01/06 10:52:30;;;;;;;24.02;15.80;;;3.90;99.90;;;;;;5024345;28;20188;-50
2024/01/06 10:54:57;;;;;;;23.67;16.60;;;3.90;99.90;;;;;;5023813;28;20191;-39
2024/01/06 10:57:23;;;;;;;20.17;15.30;;;3.90;99.90;;;;;;5024084;28;20188;-42
2024/01/06 10:59:51;;;;;;;24.52;16.02;;;3.90;99.90;;;;;;5024186;28;20194;-42
2024/01/06 11:02:17;;;;;;;23.38;15.50;;;4.00;99.90;;;;;;5023274;28;20566;-43
2024/01/06 11:04:47;;;;;;;22.77;15.27;;;4.00;99.90;;;;;;5023864;28;20196;-45
2024/01/06 11:07:18;;;;;;;19.27;14.32;;;4.00;99.90;;;;;;5023069;28;20215;-49
2024/01/06 11:09:51;;;;;;;21.70;14.55;;;3.90;99.90;;;;;;5023858;28;20249;-41
2024/01/06 11:12:18;;;;;;;19.48;14.50;;;3.90;99.90;;;;;;5022255;28;21220;-42
2024/01/06 11:14:45;;;;;;;20.02;14.63;;;3.90;99.90;;;;;;5023471;28;20306;-41
2024/01/06 11:17:12;;;;;;;22.80;14.75;;;3.90;99.90;;;;;;5023548;28;20218;-45
2024/01/06 11:19:37;;;;;;;20.90;13.82;;;4.00;99.90;;;;;;5023381;28;20257;-40
2024/01/06 11:22:31;;;;;;;20.23;14.63;;;4.00;99.90;;;;;;5023441;28;20601;-46
2024/01/06 11:25:04;;;;;;;18.58;12.25;;;4.00;99.90;;;;;;5014768;28;20192;-46
2024/01/06 11:27:31;;;;;;;17.75;11.98;;;4.10;99.90;;;;;;5023072;28;20246;-42
2024/01/06 11:29:59;;;;;;;16.00;11.82;;;4.10;99.90;;;;;;5023423;28;20663;-42
2024/01/06 11:32:36;;;;;;;14.20;10.63;;;4.10;99.90;;;;;;5020898;28;20629;-40
2024/01/06 11:35:09;;;;;;;17.23;11.18;;;4.10;99.90;;;;;;5023259;28;20307;-45
2024/01/06 11:37:41;;;;;;;16.48;11.57;;;4.10;99.90;;;;;;5023131;28;20645;-37
2024/01/06 11:40:15;;;;;;;14.55;10.05;;;4.20;99.90;;;;;;5023268;28;20253;-46
2024/01/06 11:42:42;;;;;;;16.27;11.98;;;4.20;99.90;;;;;;5022729;28;20264;-43
2024/01/06 11:45:08;;;;;;;18.60;12.40;;;4.20;99.90;;;;;;5022347;28;20194;-43
2024/01/06 11:47:35;;;;;;;13.52;10.98;;;4.10;99.90;;;;;;5022924;28;20231;-43
2024/01/06 11:50:05;;;;;;;15.88;12.00;;;4.20;99.90;;;;;;5023133;28;20269;-40
2024/01/06 11:52:33;;;;;;;15.77;11.40;;;4.10;99.90;;;;;;5022648;28;20210;-44
2024/01/06 11:54:59;;;;;;;18.00;11.48;;;4.10;99.90;;;;;;4999147;28;20212;-43
2024/01/06 11:57:29;;;;;;;15.13;10.73;;;4.10;99.90;;;;;;5016819;28;20259;-46
2024/01/06 11:59:55;;;;;;;14.77;10.75;;;4.20;99.90;;;;;;5022995;28;20573;-49
2024/01/06 12:02:25;;;;;;;14.40;10.05;;;4.20;99.90;;;;;;5022710;28;20180;-46
2024/01/06 12:04:52;;;;;;;16.60;10.60;;;4.20;99.90;;;;;;5021674;28;20293;-42
2024/01/06 12:07:20;;;;;;;13.75;10.50;;;4.20;99.90;;;;;;5022155;28;20180;-46
2024/01/06 12:09:47;;;;;;;15.40;10.55;;;4.20;99.90;;;;;;5022477;28;20191;-43
2024/01/06 12:12:16;;;;;;;15.68;10.88;;;4.20;99.90;;;;;;5021758;28;20322;-41
2024/01/06 12:14:42;;;;;;;16.00;10.00;;;4.10;99.90;;;;;;5021731;28;20180;-44
2024/01/06 12:17:09;;;;;;;18.55;12.07;;;4.10;99.90;;;;;;5016458;28;20542;-45
2024/01/06 12:19:35;;;;;;;14.13;9.40;;;4.10;99.90;;;;;;5014209;28;20199;-42
2024/01/06 12:22:02;;;;;;;13.77;10.38;;;4.10;99.90;;;;;;5022097;28;20184;-44
2024/01/06 12:24:29;;;;;;;17.20;10.15;;;4.00;99.90;;;;;;5022347;28;20257;-42
2024/01/06 12:26:57;;;;;;;13.68;10.02;;;4.00;99.90;;;;;;5021558;28;20674;-47
2024/01/06 12:29:28;;;;;;;14.55;10.25;;;4.00;99.90;;;;;;5022073;28;20592;-42
2024/01/06 12:31:54;;;;;;;17.45;10.95;;;4.00;99.90;;;;;;5022269;28;20200;-49
2024/01/06 12:34:21;;;;;;;14.13;10.38;;;4.00;99.90;;;;;;5022315;28;20199;-42